Time;durP1;ratioP1;P1;durP2;ratioP2;P2;SDS_P1;SDS_P2;PMS_P1;PMS_P2;Temp;Humidity;BMP_temperature;BMP_pressure;BME280_temperature;BME280_humidity;BME280_pressure;Samples;Min_cycle;Max_cycle;Signal;HPM_P1;HPM_P2
2022/01/05 00:00:20;;;;;;;5.82;2.03;;;;;;;0.77;100.00;99179.50;5070377;28;20187;-77
2022/01/05 00:02:46;;;;;;;7.40;2.25;;;;;;;0.75;100.00;99176.03;5070946;28;20283;-78
2022/01/05 00:05:11;;;;;;;5.78;1.63;;;;;;;0.73;100.00;99180.47;5071958;28;20622;-78
2022/01/05 00:07:37;;;;;;;8.43;2.08;;;;;;;0.80;100.00;99182.06;5069623;28;20261;-78
2022/01/05 00:10:03;;;;;;;8.27;1.95;;;;;;;0.76;100.00;99180.41;5068797;28;20198;-78
2022/01/05 00:12:29;;;;;;;11.02;2.40;;;;;;;0.76;100.00;99175.13;5053697;28;20210;-78
2022/01/05 00:14:54;;;;;;;7.35;2.00;;;;;;;0.84;100.00;99172.31;5054234;28;20604;-78
2022/01/05 00:17:19;;;;;;;15.27;2.22;;;;;;;0.80;100.00;99170.66;5071499;28;20174;-78
2022/01/05 00:19:45;;;;;;;6.57;1.83;;;;;;;0.84;100.00;99176.72;5072329;28;20171;-78
2022/01/05 00:22:11;;;;;;;12.55;1.80;;;;;;;0.95;100.00;99172.03;5071525;28;20303;-78
2022/01/05 00:24:41;;;;;;;14.80;2.35;;;;;;;0.93;100.00;99156.25;5071570;28;20194;-78
2022/01/05 00:27:07;;;;;;;8.57;1.92;;;;;;;0.95;100.00;99156.22;5061464;28;20190;-77
2022/01/05 00:29:32;;;;;;;8.88;1.88;;;;;;;0.97;100.00;99136.81;5050463;28;20195;-77
2022/01/05 00:31:57;;;;;;;11.73;2.08;;;;;;;0.98;100.00;99133.28;5050427;28;20587;-78
2022/01/05 00:34:23;;;;;;;10.77;2.20;;;;;;;0.94;100.00;99113.16;5051800;28;20179;-78
2022/01/05 00:36:48;;;;;;;10.85;2.03;;;;;;;0.92;100.00;99124.63;5049522;28;20244;-77
2022/01/05 00:39:14;;;;;;;10.00;2.63;;;;;;;0.95;100.00;99129.84;5051676;28;20167;-78
2022/01/05 00:41:39;;;;;;;11.43;2.45;;;;;;;0.93;100.00;99127.25;5051353;28;20198;-78
2022/01/05 00:44:05;;;;;;;9.68;2.38;;;;;;;0.93;100.00;99123.75;5050351;28;20171;-78
2022/01/05 00:46:30;;;;;;;8.98;2.65;;;;;;;0.88;100.00;99115.09;5051018;28;20171;-77
2022/01/05 00:48:56;;;;;;;6.65;2.78;;;;;;;0.81;100.00;99115.25;5032987;28;20551;-78
2022/01/05 00:51:21;;;;;;;6.47;2.35;;;;;;;0.88;100.00;99115.97;5050050;28;20687;-78
2022/01/05 00:53:47;;;;;;;12.93;2.70;;;;;;;0.95;100.00;99120.16;5050099;28;20175;-78
2022/01/05 00:56:13;;;;;;;8.90;2.70;;;;;;;1.03;100.00;99131.38;5032712;28;20174;-78
2022/01/05 00:58:38;;;;;;;10.98;2.50;;;;;;;1.06;100.00;99140.97;5050897;28;20167;-78
2022/01/05 01:01:04;;;;;;;12.25;3.35;;;;;;;0.99;100.00;99121.81;5049600;28;20225;-78
2022/01/05 01:03:29;;;;;;;15.35;2.63;;;;;;;0.99;100.00;99120.97;5051036;28;20167;-77
2022/01/05 01:05:56;;;;;;;11.93;1.90;;;;;;;1.02;100.00;99105.03;5050564;28;20172;-77
2022/01/05 01:08:22;;;;;;;9.85;1.80;;;;;;;0.96;100.00;99114.00;5033063;28;20195;-78
2022/01/05 01:10:47;;;;;;;7.00;2.20;;;;;;;0.94;100.00;99109.66;5049488;28;20250;-77
2022/01/05 01:13:16;;;;;;;6.28;1.48;;;;;;;0.93;100.00;99106.16;5049279;28;20175;-77
2022/01/05 01:15:47;;;;;;;7.30;1.60;;;;;;;1.04;100.00;99100.59;5049693;28;20308;-77
2022/01/05 01:18:13;;;;;;;9.95;2.40;;;;;;;0.99;100.00;99107.78;5049786;28;20155;-78
2022/01/05 01:20:38;;;;;;;6.47;2.05;;;;;;;0.97;100.00;99105.16;5050657;28;20167;-77
2022/01/05 01:23:04;;;;;;;7.43;1.52;;;;;;;0.93;100.00;99110.56;5049370;28;20679;-78
2022/01/05 01:25:29;;;;;;;10.90;2.22;;;;;;;0.93;100.00;99115.84;5049124;28;20230;-78
2022/01/05 01:27:55;;;;;;;6.28;1.75;;;;;;;0.97;100.00;99106.94;5064564;28;20174;-77
2022/01/05 01:30:20;;;;;;;8.02;1.98;;;;;;;1.03;100.00;99094.47;5069757;28;20180;-78
2022/01/05 01:32:46;;;;;;;7.10;2.35;;;;;;;1.00;100.00;99075.22;5069354;28;20206;-78
2022/01/05 01:35:11;;;;;;;7.45;1.75;;;;;;;1.00;100.00;99094.53;5069260;28;20166;-77
2022/01/05 01:37:37;;;;;;;8.52;1.95;;;;;;;0.85;100.00;99086.16;5068624;28;20196;-77
2022/01/05 01:40:05;;;;;;;9.38;2.00;;;;;;;0.79;100.00;99082.81;5069782;28;20622;-77
2022/01/05 01:42:31;;;;;;;11.13;2.25;;;;;;;0.71;100.00;99082.13;5070767;28;20297;-77
2022/01/05 01:44:56;;;;;;;12.52;2.70;;;;;;;0.72;100.00;99093.53;5052702;28;20262;-77
2022/01/05 01:47:22;;;;;;;11.45;2.42;;;;;;;0.79;100.00;99080.16;5052378;28;20198;-78
2022/01/05 01:49:47;;;;;;;11.13;2.17;;;;;;;0.79;100.00;99080.16;5068815;28;20198;-81
2022/01/05 01:52:12;;;;;;;8.38;2.10;;;;;;;0.88;100.00;99072.94;5068834;28;20198;-78
2022/01/05 01:54:39;;;;;;;13.18;2.35;;;;;;;0.88;100.00;99079.06;5070033;28;20167;-77
2022/01/05 01:57:06;;;;;;;6.57;2.10;;;;;;;0.88;100.00;99078.19;5070073;28;20593;-77
2022/01/05 01:59:31;;;;;;;9.88;1.95;;;;;;;0.88;100.00;99079.06;5068696;28;20163;-78
2022/01/05 02:01:57;;;;;;;7.75;1.63;;;;;;;0.88;100.00;99060.59;5017822;28;20761;-77
2022/01/05 02:04:22;;;;;;;10.60;2.13;;;;;;;0.79;100.00;99074.03;5069295;28;20181;-77
2022/01/05 02:06:48;;;;;;;9.00;2.03;;;;;;;0.79;100.00;99052.94;5069858;28;20236;-77
2022/01/05 02:09:14;;;;;;;10.40;2.30;;;;;;;0.74;100.00;99041.66;5069561;28;20190;-77
2022/01/05 02:11:40;;;;;;;8.82;1.60;;;;;;;0.74;100.00;99050.41;5072910;28;20209;-77
2022/01/05 02:14:06;;;;;;;8.57;2.22;;;;;;;0.72;100.00;99052.25;5074447;28;20167;-77
2022/01/05 02:16:34;;;;;;;10.80;2.00;;;;;;;0.73;100.00;99043.41;5065380;28;20194;-77
2022/01/05 02:19:00;;;;;;;10.45;1.70;;;;;;;0.68;100.00;99037.41;5054612;28;20268;-77
2022/01/05 02:21:33;;;;;;;8.68;1.30;;;;;;;0.70;100.00;99040.88;5054343;28;20574;-77
2022/01/05 02:24:00;;;;;;;7.65;1.73;;;;;;;0.73;100.00;99037.28;5053259;28;20167;-77
2022/01/05 02:26:26;;;;;;;8.48;2.00;;;;;;;0.70;100.00;99030.34;5058614;28;20174;-77
2022/01/05 02:28:52;;;;;;;8.57;1.75;;;;;;;0.71;100.00;99026.78;5067754;28;20198;-77
2022/01/05 02:31:17;;;;;;;10.02;1.98;;;;;;;0.71;100.00;99029.41;5073578;28;20207;-77
2022/01/05 02:33:42;;;;;;;10.63;2.15;;;;;;;0.74;100.00;99020.56;5074082;28;20671;-77
2022/01/05 02:36:10;;;;;;;7.35;1.63;;;;;;;0.76;100.00;99018.75;5072189;28;20178;-77
2022/01/05 02:38:35;;;;;;;7.97;2.03;;;;;;;0.72;100.00;98994.25;5056124;28;20185;-77
2022/01/05 02:41:07;;;;;;;6.43;1.70;;;;;;;0.72;100.00;99002.16;5074115;28;20262;-77
2022/01/05 02:43:34;;;;;;;6.35;1.50;;;;;;;0.76;100.00;98997.66;5073340;28;20244;-77
2022/01/05 02:45:59;;;;;;;11.60;2.00;;;;;;;0.77;100.00;98996.78;5072744;28;20194;-77
2022/01/05 02:48:25;;;;;;;10.65;2.10;;;;;;;0.79;100.00;98989.69;5072864;28;20301;-77
2022/01/05 02:50:55;;;;;;;10.57;1.73;;;;;;;0.77;100.00;98991.50;5073518;28;20197;-78
2022/01/05 02:53:21;;;;;;;10.13;2.00;;;;;;;0.85;100.00;98994.75;5073580;28;20179;-78
2022/01/05 02:55:46;;;;;;;10.50;2.10;;;;;;;0.83;100.00;98996.56;5073979;28;20560;-78
2022/01/05 02:58:11;;;;;;;8.18;2.13;;;;;;;0.78;100.00;98988.78;5073163;28;20175;-78
2022/01/05 03:00:37;;;;;;;11.00;2.25;;;;;;;0.76;100.00;98995.88;5055497;28;20274;-77
2022/01/05 03:03:02;;;;;;;12.48;2.58;;;;;;;0.87;100.00;98986.81;5071979;28;20194;-77
2022/01/05 03:05:28;;;;;;;8.50;2.38;;;;;;;0.86;100.00;98985.09;5072653;28;20739;-77
2022/01/05 03:07:53;;;;;;;12.38;2.80;;;;;;;0.78;100.00;98991.44;5073365;28;20167;-77
2022/01/05 03:10:19;;;;;;;9.25;2.92;;;;;;;0.85;100.00;98986.00;5072567;28;20198;-77
2022/01/05 03:12:45;;;;;;;15.48;3.30;;;;;;;0.93;100.00;98982.22;5073245;28;20283;-77
2022/01/05 03:15:11;;;;;;;9.15;2.05;;;;;;;0.95;100.00;98984.84;5073951;28;20179;-77
2022/01/05 03:17:37;;;;;;;9.95;2.38;;;;;;;0.94;100.00;98967.25;5055219;28;20174;-78
2022/01/05 03:20:03;;;;;;;12.95;3.13;;;;;;;0.95;100.00;98963.75;5054923;28;20173;-78
2022/01/05 03:22:29;;;;;;;8.50;2.53;;;;;;;1.03;100.00;98956.47;5072136;28;20283;-78
2022/01/05 03:24:54;;;;;;;16.52;2.80;;;;;;;0.99;100.00;98952.19;5073618;28;20249;-78
2022/01/05 03:27:20;;;;;;;10.52;2.17;;;;;;;0.95;100.00;98963.75;5072766;28;20190;-78
2022/01/05 03:29:45;;;;;;;10.50;2.60;;;;;;;0.95;100.00;98964.59;5073912;28;20202;-78
2022/01/05 03:32:10;;;;;;;12.40;2.67;;;;;;;0.91;100.00;98946.28;5072123;28;20630;-78
2022/01/05 03:34:37;;;;;;;17.35;3.15;;;;;;;0.94;100.00;98940.91;5072845;28;20262;-78
2022/01/05 03:37:03;;;;;;;10.45;2.65;;;;;;;0.96;100.00;98939.09;5071187;28;20186;-78
2022/01/05 03:39:29;;;;;;;16.58;2.80;;;;;;;1.01;100.00;98948.59;5072386;28;20232;-78
2022/01/05 03:41:54;;;;;;;13.45;2.72;;;;;;;1.03;100.00;98946.78;5071607;28;20269;-78
2022/01/05 03:44:19;;;;;;;8.40;2.13;;;;;;;1.07;100.00;98930.84;5054864;28;20250;-78
2022/01/05 03:46:45;;;;;;;10.85;2.40;;;;;;;1.06;100.00;98937.06;5071825;28;20175;-77
2022/01/05 03:49:10;;;;;;;8.07;2.22;;;;;;;1.09;100.00;98940.44;5054536;28;20203;-78
2022/01/05 03:51:36;;;;;;;13.35;2.38;;;;;;;1.20;100.00;98929.56;5072212;28;20214;-77
2022/01/05 03:54:01;;;;;;;15.50;2.60;;;;;;;1.13;100.00;98946.50;5072608;28;20163;-78
2022/01/05 03:56:27;;;;;;;16.52;2.58;;;;;;;1.12;100.00;98921.06;5071203;28;20175;-77
2022/01/05 03:58:52;;;;;;;11.85;2.35;;;;;;;1.13;100.00;98928.03;5072309;28;20859;-79
2022/01/05 04:01:17;;;;;;;16.50;2.80;;;;;;;1.14;100.00;98924.50;5070498;28;20236;-78
2022/01/05 04:03:43;;;;;;;15.23;2.45;;;;;;;1.06;100.00;98924.72;5072193;28;20269;-78
2022/01/05 04:06:08;;;;;;;17.25;2.35;;;;;;;1.04;100.00;98918.63;5074431;28;20158;-77
2022/01/05 04:08:34;;;;;;;10.80;2.40;;;;;;;1.05;100.00;98919.47;5073449;28;20187;-79
2022/01/05 04:10:59;;;;;;;10.82;2.70;;;;;;;1.05;100.00;98906.31;5073447;28;20159;-77
2022/01/05 04:13:25;;;;;;;14.02;3.03;;;;;;;1.09;100.00;98908.78;5074263;28;20173;-77
2022/01/05 04:15:50;;;;;;;15.65;2.60;;;;;;;1.05;100.00;98912.47;5073231;28;20210;-78
2022/01/05 04:18:16;;;;;;;12.90;2.53;;;;;;;1.12;100.00;98921.91;5068442;28;20181;-77
2022/01/05 04:20:41;;;;;;;8.35;2.13;;;;;;;1.14;100.00;98917.44;5072314;28;20543;-77
2022/01/05 04:23:07;;;;;;;11.68;2.53;;;;;;;1.12;100.00;98928.97;5053983;28;20638;-77
2022/01/05 04:25:33;;;;;;;10.77;2.33;;;;;;;1.11;100.00;98943.03;5071142;28;20201;-78
2022/01/05 04:28:00;;;;;;;14.35;2.53;;;;;;;1.02;100.00;98931.84;5070502;28;20193;-78
2022/01/05 04:30:25;;;;;;;8.85;2.45;;;;;;;1.04;100.00;98931.81;5052326;28;20164;-77
2022/01/05 04:32:51;;;;;;;8.73;2.00;;;;;;;0.87;100.00;98915.63;5071036;28;20198;-77
2022/01/05 04:35:16;;;;;;;11.27;2.72;;;;;;;0.86;100.00;98933.22;5072744;28;20613;-78
2022/01/05 04:37:42;;;;;;;11.48;2.10;;;;;;;0.75;100.00;98941.44;5054126;28;20190;-78
2022/01/05 04:40:10;;;;;;;11.32;2.50;;;;;;;0.71;100.00;98934.53;5072978;28;20171;-78
2022/01/05 04:42:35;;;;;;;12.75;1.90;;;;;;;0.67;100.00;98940.78;5071918;28;20694;-79
2022/01/05 04:45:01;;;;;;;7.05;1.80;;;;;;;0.63;100.00;98939.16;5073972;28;20174;-79
2022/01/05 04:47:27;;;;;;;9.88;2.40;;;;;;;0.64;100.00;98938.25;5073889;28;20171;-79
2022/01/05 04:49:52;;;;;;;9.70;2.28;;;;;;;0.61;100.00;98938.31;5074545;28;20216;-79
2022/01/05 04:52:18;;;;;;;9.00;1.98;;;;;;;0.55;100.00;98947.28;5075676;28;20213;-79
2022/01/05 04:54:43;;;;;;;8.60;2.00;;;;;;;0.57;100.00;98937.56;5075077;28;20174;-79
2022/01/05 04:57:09;;;;;;;7.78;2.08;;;;;;;0.65;100.00;98939.13;5073585;28;20197;-79
2022/01/05 04:59:34;;;;;;;11.85;2.17;;;;;;;0.66;100.00;98938.22;5074785;28;20257;-80
2022/01/05 05:02:00;;;;;;;5.22;1.80;;;;;;;0.76;100.00;98939.66;5074763;28;20207;-79
2022/01/05 05:04:26;;;;;;;7.70;2.03;;;;;;;0.75;100.00;98949.34;5073876;28;20252;-79
2022/01/05 05:06:51;;;;;;;7.78;2.05;;;;;;;0.77;100.00;98926.47;5073141;28;20201;-78
2022/01/05 05:09:17;;;;;;;5.70;2.05;;;;;;;0.79;100.00;98943.09;5074400;28;20198;-78
2022/01/05 05:11:42;;;;;;;9.10;2.20;;;;;;;0.83;100.00;98925.41;5073282;28;20289;-79
2022/01/05 05:14:09;;;;;;;12.48;2.65;;;;;;;0.86;100.00;98932.38;5072845;28;20179;-78
2022/01/05 05:16:34;;;;;;;8.25;2.20;;;;;;;0.90;100.00;98955.97;5073600;28;20249;-78
2022/01/05 05:19:00;;;;;;;7.47;2.05;;;;;;;0.96;100.00;98939.09;5071888;28;20194;-78
2022/01/05 05:21:25;;;;;;;6.18;2.00;;;;;;;1.03;100.00;98935.38;5072817;28;20202;-79
2022/01/05 05:23:51;;;;;;;5.88;2.10;;;;;;;1.00;100.00;98946.00;5070507;28;20280;-79
2022/01/05 05:26:16;;;;;;;7.50;2.50;;;;;;;1.01;100.00;98943.31;5069758;28;20523;-79
2022/01/05 05:28:41;;;;;;;6.65;2.08;;;;;;;1.06;100.00;98952.88;5071424;28;20788;-79
2022/01/05 05:31:07;;;;;;;5.68;1.85;;;;;;;1.06;100.00;98964.28;5069241;28;20218;-79
2022/01/05 05:33:33;;;;;;;7.00;2.00;;;;;;;1.11;100.00;98954.44;5069000;28;20194;-80
2022/01/05 05:35:58;;;;;;;9.25;2.30;;;;;;;1.13;100.00;98960.53;5068857;28;20339;-79
2022/01/05 05:38:24;;;;;;;6.68;1.85;;;;;;;1.10;100.00;98960.66;5070282;28;20174;-78
2022/01/05 05:40:50;;;;;;;8.98;2.22;;;;;;;1.13;100.00;98950.00;5070409;28;20197;-79
2022/01/05 05:43:15;;;;;;;5.43;1.90;;;;;;;1.14;100.00;98957.00;5069273;28;20166;-80
2022/01/05 05:45:40;;;;;;;9.70;2.80;;;;;;;1.11;100.00;98949.16;5068202;28;20296;-79
2022/01/05 05:48:06;;;;;;;5.82;2.00;;;;;;;1.15;100.00;98945.53;5070085;28;20198;-80
2022/01/05 05:50:32;;;;;;;8.98;2.00;;;;;;;1.20;100.00;98953.31;5070295;28;20179;-78
2022/01/05 05:52:58;;;;;;;8.07;2.15;;;;;;;1.22;100.00;98944.47;5052097;28;20194;-79
2022/01/05 05:55:24;;;;;;;10.68;2.20;;;;;;;1.26;100.00;98952.28;5068736;28;20169;-78
2022/01/05 05:57:49;;;;;;;8.55;2.65;;;;;;;1.28;100.00;98942.53;5070937;28;20172;-78
2022/01/05 06:00:15;;;;;;;6.80;2.28;;;;;;;1.35;100.00;98947.56;5067857;28;20162;-78
2022/01/05 06:02:40;;;;;;;9.13;2.03;;;;;;;1.41;100.00;98951.78;5066069;28;20209;-79
2022/01/05 06:05:06;;;;;;;6.88;2.22;;;;;;;1.49;100.00;98957.72;5068089;28;20167;-80
2022/01/05 06:07:32;;;;;;;10.80;2.25;;;;;;;1.48;100.00;98953.31;5067170;28;20185;-80
2022/01/05 06:09:59;;;;;;;6.03;1.92;;;;;;;1.54;100.00;98957.56;5066257;28;20211;-80
2022/01/05 06:12:25;;;;;;;7.65;2.50;;;;;;;1.53;100.00;98969.00;5066642;28;20194;-80
2022/01/05 06:14:50;;;;;;;9.27;2.10;;;;;;;1.50;100.00;98969.97;5068059;28;20520;-79
2022/01/05 06:17:16;;;;;;;7.78;2.55;;;;;;;1.47;100.00;98969.22;5068751;28;20265;-79
2022/01/05 06:19:41;;;;;;;6.25;2.40;;;;;;;1.47;100.00;98970.09;5070376;28;20240;-79
2022/01/05 06:22:07;;;;;;;11.98;2.53;;;;;;;1.54;100.00;98971.59;5052328;28;20232;-80
2022/01/05 06:24:34;;;;;;;9.02;2.47;;;;;;;1.60;100.00;98981.97;5070654;28;20163;-79
2022/01/05 06:27:00;;;;;;;8.52;2.17;;;;;;;1.67;100.00;98984.44;5070351;28;20170;-79
2022/01/05 06:29:25;;;;;;;5.35;2.30;;;;;;;1.67;100.00;99000.25;5071591;28;20636;-79
2022/01/05 06:31:50;;;;;;;7.80;2.10;;;;;;;1.60;100.00;98994.31;5071162;28;20193;-79
2022/01/05 06:34:16;;;;;;;10.80;2.58;;;;;;;1.59;100.00;99008.41;5069893;28;20285;-79
2022/01/05 06:36:41;;;;;;;9.50;2.38;;;;;;;1.55;100.00;99006.78;5054224;28;20174;-79
2022/01/05 06:39:07;;;;;;;11.27;2.58;;;;;;;1.53;100.00;99014.75;5072496;28;20247;-79
2022/01/05 06:41:32;;;;;;;4.90;2.45;;;;;;;1.39;100.00;99016.94;5062338;28;20210;-79
2022/01/05 06:43:58;;;;;;;5.88;1.90;;;;;;;1.44;100.00;99004.47;5052774;28;20586;-79
2022/01/05 06:46:23;;;;;;;6.10;2.40;;;;;;;1.40;100.00;99006.34;5053680;28;20178;-80
2022/01/05 06:48:49;;;;;;;3.60;2.00;;;;;;;1.43;100.00;99002.75;5057623;28;20202;-80
2022/01/05 06:51:14;;;;;;;6.95;1.85;;;;;;;1.40;100.00;99005.47;5075665;28;20297;-80
2022/01/05 06:53:40;;;;;;;5.13;1.40;;;;;;;1.40;100.00;99008.09;5074208;28;20261;-81
2022/01/05 06:56:06;;;;;;;3.35;1.63;;;;;;;1.42;100.00;99011.56;5073572;28;20171;-80
2022/01/05 06:58:32;;;;;;;4.72;1.38;;;;;;;1.44;100.00;99013.25;5075936;28;20198;-81
2022/01/05 07:00:57;;;;;;;1.83;1.13;;;;;;;1.42;100.00;98996.63;5077134;28;20196;-80
2022/01/05 07:03:23;;;;;;;4.85;1.45;;;;;;;1.48;100.00;99006.09;5075194;28;20182;-80
2022/01/05 07:05:48;;;;;;;4.35;1.02;;;;;;;1.44;100.00;98999.19;5057758;28;20244;-80
2022/01/05 07:08:14;;;;;;;2.08;0.82;;;;;;;1.44;100.00;99015.00;5075148;28;20312;-81
2022/01/05 07:10:39;;;;;;;4.68;1.10;;;;;;;1.48;100.00;99014.00;5059101;28;20244;-81
2022/01/05 07:13:05;;;;;;;3.80;1.20;;;;;;;1.48;100.00;99018.44;5078078;28;20269;-80
2022/01/05 07:15:31;;;;;;;3.70;1.27;;;;;;;1.50;100.00;99020.13;5078161;28;20167;-80
2022/01/05 07:17:57;;;;;;;4.13;1.45;;;;;;;1.48;100.00;99026.34;5074337;28;20406;-80
2022/01/05 07:20:23;;;;;;;9.30;1.20;;;;;;;1.55;100.00;99019.97;5057569;28;20171;-80
2022/01/05 07:22:49;;;;;;;5.20;1.40;;;;;;;1.47;100.00;99017.59;5075317;28;20206;-79
2022/01/05 07:25:14;;;;;;;4.88;1.75;;;;;;;1.44;100.00;99017.66;5075210;28;20259;-80
2022/01/05 07:27:40;;;;;;;7.50;1.60;;;;;;;1.44;100.00;99022.94;5075170;28;20186;-82
2022/01/05 07:30:07;;;;;;;6.88;1.65;;;;;;;1.47;100.00;99028.13;5076337;28;20187;-81
2022/01/05 07:32:32;;;;;;;7.30;2.05;;;;;;;1.49;100.00;99033.34;5075546;28;20241;-81
2022/01/05 07:34:58;;;;;;;7.65;1.98;;;;;;;1.52;100.00;99031.50;5076053;28;20183;-81
2022/01/05 07:37:24;;;;;;;10.25;2.15;;;;;;;1.53;100.00;99029.72;5075160;28;20198;-81
2022/01/05 07:39:49;;;;;;;10.52;2.58;;;;;;;1.49;100.00;99022.78;5075493;28;20171;-83
2022/01/05 07:42:15;;;;;;;9.55;2.20;;;;;;;1.51;100.00;99031.53;5075682;28;20198;-81
2022/01/05 07:44:41;;;;;;;11.75;2.20;;;;;;;1.59;100.00;99017.19;5074870;28;20178;-81
2022/01/05 07:47:07;;;;;;;8.88;2.30;;;;;;;1.60;100.00;99032.13;5075922;28;20183;-81
2022/01/05 07:49:33;;;;;;;11.70;2.17;;;;;;;1.59;100.00;99022.47;5076731;28;20540;-80
2022/01/05 07:51:58;;;;;;;8.07;2.20;;;;;;;1.72;100.00;99035.28;5066102;28;20197;-79
2022/01/05 07:54:23;;;;;;;7.00;2.08;;;;;;;1.65;100.00;99034.63;5087259;28;20183;-79
2022/01/05 07:56:49;;;;;;;7.05;2.05;;;;;;;1.69;100.00;99030.97;5084957;28;20173;-79
2022/01/05 07:59:14;;;;;;;7.30;2.20;;;;;;;1.64;100.00;99035.56;5083176;28;20197;-79
2022/01/05 08:01:40;;;;;;;8.85;1.98;;;;;;;1.52;100.00;99030.63;5081646;28;20244;-79
2022/01/05 08:04:06;;;;;;;9.15;2.40;;;;;;;1.51;100.00;99032.41;5074356;28;20187;-80
2022/01/05 08:06:31;;;;;;;9.75;2.60;;;;;;;1.54;100.00;99034.94;5074061;28;20187;-80
2022/01/05 08:08:57;;;;;;;6.28;2.22;;;;;;;1.51;100.00;99042.09;5079350;28;20225;-81
2022/01/05 08:11:22;;;;;;;8.75;2.80;;;;;;;1.52;100.00;99038.56;5075685;28;20271;-80
2022/01/05 08:13:48;;;;;;;7.32;2.20;;;;;;;1.60;100.00;99047.97;5076287;28;20288;-80
2022/01/05 08:16:14;;;;;;;5.70;2.08;;;;;;;1.64;100.00;99049.59;5076801;28;20186;-80
2022/01/05 08:18:40;;;;;;;7.53;2.10;;;;;;;1.61;100.00;99047.03;5074346;28;20183;-82
2022/01/05 08:21:05;;;;;;;6.68;2.55;;;;;;;1.62;100.00;99051.44;5073874;28;20240;-83
2022/01/05 08:23:31;;;;;;;6.25;2.20;;;;;;;1.65;100.00;99053.09;5081721;28;20198;-80
2022/01/05 08:25:56;;;;;;;6.10;2.63;;;;;;;1.64;100.00;99056.66;5082459;28;20550;-79
2022/01/05 08:28:22;;;;;;;5.47;2.08;;;;;;;1.68;100.00;99054.78;5065108;28;20183;-79
2022/01/05 08:30:47;;;;;;;3.85;1.80;;;;;;;1.70;100.00;99055.59;5061417;28;20599;-79
2022/01/05 08:33:15;;;;;;;5.70;1.92;;;;;;;1.71;100.00;99060.84;5061577;28;20194;-79
2022/01/05 08:35:40;;;;;;;7.10;1.85;;;;;;;1.72;100.00;99059.06;5062011;28;20179;-79
2022/01/05 08:38:06;;;;;;;2.58;1.73;;;;;;;1.71;100.00;99052.91;5061916;28;20698;-79
2022/01/05 08:40:34;;;;;;;4.10;1.63;;;;;;;1.72;100.00;99045.84;5054425;28;20659;-80
2022/01/05 08:43:00;;;;;;;4.57;1.70;;;;;;;1.72;100.00;99040.56;5053650;28;20676;-81
2022/01/05 08:45:25;;;;;;;6.15;1.80;;;;;;;1.68;100.00;99038.94;5067966;28;20181;-79
2022/01/05 08:47:52;;;;;;;3.97;2.15;;;;;;;1.67;100.00;99047.78;5080900;28;20308;-78
2022/01/05 08:50:21;;;;;;;3.95;1.77;;;;;;;1.64;100.00;99043.47;5082237;28;20689;-78
2022/01/05 08:52:47;;;;;;;4.07;1.85;;;;;;;1.62;100.00;99050.56;5073610;28;20667;-79
2022/01/05 08:55:16;;;;;;;1.98;1.80;;;;;;;1.64;100.00;99044.31;5076511;28;20670;-80
2022/01/05 08:57:42;;;;;;;3.95;1.90;;;;;;;1.62;100.00;99048.78;5074195;28;20761;-80
2022/01/05 09:00:08;;;;;;;5.40;2.20;;;;;;;1.69;100.00;99051.25;5073293;28;20321;-78
2022/01/05 09:02:34;;;;;;;5.07;2.90;;;;;;;1.64;100.00;99046.97;5074537;28;20206;-79
2022/01/05 09:05:00;;;;;;;3.28;2.30;;;;;;;1.51;100.00;99055.28;5075716;28;20173;-79
2022/01/05 09:07:25;;;;;;;6.35;2.38;;;;;;;1.52;100.00;99057.03;5072496;28;20258;-79
2022/01/05 09:09:51;;;;;;;6.82;2.10;;;;;;;1.52;100.00;99047.31;5060686;28;20206;-78
2022/01/05 09:12:16;;;;;;;3.65;2.28;;;;;;;1.59;100.00;99046.22;5074517;28;20252;-79
2022/01/05 09:14:42;;;;;;;3.65;2.33;;;;;;;1.65;100.00;99053.97;5065941;28;20175;-78
2022/01/05 09:17:08;;;;;;;6.13;2.70;;;;;;;1.62;100.00;99045.28;5065274;28;20197;-82
2022/01/05 09:19:34;;;;;;;4.40;2.83;;;;;;;1.60;100.00;99042.69;5069552;28;20171;-79
2022/01/05 09:22:00;;;;;;;6.72;2.80;;;;;;;1.64;100.00;99046.97;5068910;28;20279;-79
2022/01/05 09:24:25;;;;;;;5.32;2.58;;;;;;;1.70;100.00;99039.75;5070029;28;20178;-79
2022/01/05 09:26:52;;;;;;;7.55;3.30;;;;;;;1.72;100.00;99030.88;5068713;28;20228;-79
2022/01/05 09:29:19;;;;;;;8.20;3.22;;;;;;;1.72;100.00;99022.94;5052532;28;20189;-79
2022/01/05 09:31:45;;;;;;;9.35;3.13;;;;;;;1.74;100.00;99034.31;5068306;28;20225;-79
2022/01/05 09:34:10;;;;;;;10.98;3.38;;;;;;;1.80;100.00;99033.28;5070720;28;20635;-79
2022/01/05 09:36:42;;;;;;;12.73;3.90;;;;;;;1.90;100.00;99015.38;5052619;28;20181;-79
2022/01/05 09:41:58;;;;;;;14.00;3.70;;;;;;;2.10;100.00;99033.19;5064983;28;20218;-79
2022/01/05 09:44:31;;;;;;;7.78;3.25;;;;;;;2.06;100.00;99030.66;5058761;28;20205;-78
2022/01/05 09:46:59;;;;;;;14.50;3.50;;;;;;;2.10;100.00;99025.28;5070551;28;20248;-77
2022/01/05 09:50:10;;;;;;;12.85;4.03;;;;;;;2.17;100.00;99032.09;5053989;28;20297;-78
2022/01/05 09:52:37;;;;;;;12.88;4.55;;;;;;;2.29;100.00;99036.97;5070747;28;20321;-78
2022/01/05 09:55:04;;;;;;;10.57;3.67;;;;;;;2.24;100.00;99034.47;5069290;28;20196;-78
2022/01/05 09:57:30;;;;;;;9.90;3.55;;;;;;;2.25;100.00;99035.34;5052552;28;20178;-77
2022/01/05 09:59:56;;;;;;;12.63;3.90;;;;;;;2.28;100.00;99027.31;5069303;28;20163;-77
2022/01/05 10:02:23;;;;;;;13.65;3.30;;;;;;;2.39;100.00;99033.09;5070398;28;20281;-78
2022/01/05 10:04:48;;;;;;;9.60;3.50;;;;;;;2.39;100.00;99042.81;5069084;28;20646;-78
2022/01/05 10:07:15;;;;;;;8.25;3.03;;;;;;;2.39;100.00;99017.25;5068223;28;20222;-79
2022/01/05 10:09:42;;;;;;;14.13;2.50;;;;;;;2.42;100.00;99026.84;5068992;28;20339;-79
2022/01/05 10:12:10;;;;;;;11.85;2.83;;;;;;;2.62;100.00;99020.88;5068532;28;20201;-79
2022/01/05 10:14:42;;;;;;;9.75;3.30;;;;;;;2.70;100.00;99017.97;5068602;28;20185;-78
2022/01/05 10:17:09;;;;;;;8.60;2.58;;;;;;;2.69;100.00;99017.13;5069693;28;20171;-80
2022/01/05 10:19:35;;;;;;;11.20;2.20;;;;;;;2.68;100.00;99016.22;5070318;28;20199;-77
2022/01/05 10:22:02;;;;;;;8.20;1.98;;;;;;;2.59;100.00;99010.41;5071192;28;20186;-77
2022/01/05 10:24:44;;;;;;;3.25;1.08;;;;;;;2.58;100.00;99004.28;5056349;28;20197;-77
2022/01/05 10:27:19;;;;;;;3.45;1.02;;;;;;;2.60;100.00;99009.47;5071607;28;20174;-77
2022/01/05 10:30:14;;;;;;;6.22;1.38;;;;;;;2.72;100.00;99013.50;5071099;28;20194;-78
2022/01/05 10:32:43;;;;;;;5.43;1.17;;;;;;;2.73;100.00;99015.22;5074384;28;20206;-77
2022/01/05 10:35:12;;;;;;;2.92;1.73;;;;;;;2.77;100.00;99022.13;5069243;28;20182;-77
2022/01/05 10:37:43;;;;;;;4.07;1.70;;;;;;;2.74;100.00;99011.66;5071861;28;20174;-77
2022/01/05 10:40:19;;;;;;;2.25;1.00;;;;;;;2.83;100.00;99016.63;5073486;28;20183;-78
2022/01/05 10:42:48;;;;;;;2.30;1.00;;;;;;;2.84;100.00;99024.50;5074660;28;20591;-78
2022/01/05 10:45:17;;;;;;;2.20;1.17;;;;;;;2.82;100.00;99028.97;5073534;28;20183;-79
2022/01/05 10:47:42;;;;;;;0.88;0.60;;;;;;;2.76;100.00;99030.97;5055647;28;20170;-78
2022/01/05 10:50:18;;;;;;;2.97;0.77;;;;;;;2.70;100.00;99029.41;5075388;28;20205;-78
2022/01/05 10:52:55;;;;;;;1.63;0.60;;;;;;;2.65;100.00;99020.78;5074600;28;20251;-78
2022/01/05 10:55:24;;;;;;;1.17;0.52;;;;;;;2.62;100.00;99029.69;5055887;28;20170;-77
2022/01/05 10:58:02;;;;;;;2.83;0.80;;;;;;;2.60;100.00;99028.88;5056079;28;20278;-79
2022/01/05 11:00:33;;;;;;;1.38;0.70;;;;;;;2.58;100.00;99011.31;5072478;28;20170;-78
2022/01/05 11:03:00;;;;;;;0.93;0.32;;;;;;;2.58;100.00;99027.19;5073606;28;20563;-77
2022/01/05 11:05:25;;;;;;;3.25;0.75;;;;;;;2.55;100.00;99017.56;5073199;28;20166;-77
2022/01/05 11:08:05;;;;;;;0.60;0.38;;;;;;;2.58;100.00;99028.06;5071641;28;20178;-77
2022/01/05 11:10:30;;;;;;;1.05;0.50;;;;;;;2.54;100.00;99030.88;5073324;28;20272;-77
2022/01/05 11:12:55;;;;;;;2.13;0.60;;;;;;;2.58;100.00;99036.00;5073341;28;20187;-78
2022/01/05 11:15:31;;;;;;;1.55;0.60;;;;;;;2.57;100.00;99031.59;5073673;28;20265;-77
2022/01/05 11:18:13;;;;;;;2.00;0.60;;;;;;;2.64;100.00;99033.13;5072978;28;20288;-77
2022/01/05 11:20:38;;;;;;;1.27;0.43;;;;;;;2.62;100.00;99023.50;5073433;28;20251;-77
2022/01/05 11:23:05;;;;;;;3.35;0.70;;;;;;;2.54;100.00;99026.44;5071641;28;20252;-77
2022/01/05 11:25:34;;;;;;;3.58;0.52;;;;;;;2.55;100.00;99037.88;5072803;28;20169;-77
2022/01/05 11:28:00;;;;;;;3.10;0.40;;;;;;;2.58;100.00;99038.63;5072871;28;20186;-77
2022/01/05 11:30:25;;;;;;;0.98;0.50;;;;;;;2.63;100.00;99025.25;5072277;28;20189;-76